Valle Toledo, Valles Caldera, New Mexico Weather observations

Data are for 10 minute period ending at time listed.
 Day   Time   Solar   Ave.   Ave.  Ave.  Vector  Max.   Baro.   Total    
  of    of     Rad.   Air    Rel.  Wind   Wind   Wind  Press.  Precip.   
Year   Day            Temp.  Hum.  Speed  Dir.   Gust                    
2015   (MST)  Kw/m2    F      %     mph   deg.    mph    mb.     in.     
-------------------------------------------------------------------------
  25   22:30   0.00   29.8    57    3.6    40     4.8   735.0    0.00 
  25   22:40   0.00   29.7    57    3.4    47     4.8   735.1    0.00 
  25   22:50   0.00   29.3    59    3.3    48     4.8   735.2    0.00 
  25   23:00   0.00   29.6    56    3.0    64     5.4   735.4    0.00 
  25   23:10   0.00   29.6    55    4.3    34     5.4   735.6    0.00 
  25   23:20   0.00   29.6    58    4.4    37     6.0   735.6    0.00 
  25   23:30   0.00   29.4    58    4.4    34     5.4   735.7    0.00 
  25   23:40   0.00   29.5    58    4.2    40     5.4   735.8    0.00 
  25   23:50   0.00   29.3    59    3.5    57     6.0   736.0    0.00 
  26    0:00   0.00   28.9    60    4.2    44     5.4   735.9    0.00 
  26    0:10   0.00   29.7    58    3.6    48     4.8   735.8    0.00 
  26    0:20   0.00   29.4    61    3.1    36     4.8   735.8    0.00 
  26    0:30   0.00   29.1    63    2.6    70     4.2   735.9    0.00 
  26    0:40   0.00   29.2    62    3.1    40     4.2   735.7    0.00 
  26    0:50   0.00   28.8    62    3.3   351     5.4   735.6    0.00 
  26    1:00   0.00   27.9    63    4.6   105     9.6   735.7    0.00 
  26    1:10   0.00   27.6    61    2.3    39     4.2   735.7    0.00 
  26    1:20   0.00   27.6    59    2.1    49     4.2   735.7    0.00 
  26    1:30   0.00   27.8    58    2.8    27     4.2   735.6    0.00 
  26    1:40   0.00   28.5    58    2.9   117     5.4   735.4    0.00 
  26    1:50   0.00   27.3    60    2.8   116     3.6   735.6    0.00 
  26    2:00   0.00   27.0    61    3.2    68     4.8   735.7    0.00 
  26    2:10   0.00   27.7    59    3.0    54     6.0   735.6    0.00 
  26    2:20   0.00   29.5    54    2.7   110     6.0   735.7    0.00 
  26    2:30   0.00   29.1    54    2.8    54     4.8   735.9    0.00 
  26    2:40   0.00   30.0    53    2.8    81     3.6   736.0    0.00 
  26    2:50   0.00   29.4    53    2.2    13     3.6   736.1    0.00 
  26    3:00   0.00   28.7    54    2.0   130     4.8   736.1    0.00 
  26    3:10   0.00   28.5    56    3.3    77     6.6   736.0    0.00 
  26    3:20   0.00   28.2    57    3.8    32     4.8   735.9    0.00 
  26    3:30   0.00   28.7    56    2.9    26     4.8   736.0    0.00 
  26    3:40   0.00   28.3    57    3.5    50     5.4   736.0    0.00 
  26    3:50   0.00   29.1    54    3.1    35     4.2   736.0    0.00 
  26    4:00   0.00   29.0    57    1.8    36     4.2   736.0    0.00 
  26    4:10   0.00   28.3    58    2.3    65     4.2   736.0    0.00 
  26    4:20   0.00   29.1    57    3.9    48     6.0   736.1    0.00 
  26    4:30   0.00   29.2    57    2.6    45     4.2   736.1    0.00 
  26    4:40   0.00   29.3    55    3.5    37     4.8   736.1    0.00 
  26    4:50   0.00   30.0    54    2.5    48     4.2   736.1    0.00 
  26    5:00   0.00   29.1    55    2.4    19     4.2   736.1    0.00 
  26    5:10   0.00   29.6    54    2.8    38     5.4   736.1    0.00 
  26    5:20   0.00   30.0    53    3.1    39     4.2   736.2    0.00 
  26    5:30   0.00   30.6    51    2.9    35     5.4   736.2    0.00 
  26    5:40   0.00   29.8    54    2.8    65     4.8   736.4    0.00 
  26    5:50   0.00   29.7    55    3.7    43     5.4   736.4    0.00 
  26    6:00   0.00   29.9    56    3.1    53     5.4   736.4    0.00 
  26    6:10   0.00   29.0    58    4.3    18     6.6   736.5    0.00 
  26    6:20   0.00   29.0    57    3.7    59     4.8   736.5    0.00 
  26    6:30   0.00   29.0    57    3.1    37     5.4   736.5    0.00 
  26    6:40   0.00   29.1    58    2.9    53     4.2   736.6    0.00 
  26    6:50   0.00   28.7    57    2.9    30     4.2   736.6    0.00 
  26    7:00   0.00   29.1    58    3.8    36     6.0   736.7    0.00 
  26    7:10   0.00   29.0    58    3.2    44     4.8   736.7    0.00 
  26    7:20   0.01   29.2    58    2.2    37     3.6   736.7    0.00 
  26    7:30   0.01   28.9    58    2.7    34     4.2   736.7    0.00 
  26    7:40   0.01   28.8    59    3.2    27     4.8   736.8    0.00 
  26    7:50   0.04   29.6    58    3.8    38     4.8   736.8    0.00 
  26    8:00   0.11   33.7    50    2.2    43     3.6   736.8    0.00 
  26    8:10   0.14   35.4    47    3.1    38     4.8   736.9    0.00 
  26    8:20   0.05   38.0    41    2.8    37     4.2   736.9    0.00 
  26    8:30   0.02   37.1    45    2.2    17     3.6   737.0    0.00 
  26    8:40   0.03   35.3    51    1.9    42     3.0   737.0    0.00 
  26    8:50   0.06   34.8    52    1.3    50     2.4   737.1    0.00 
  26    9:00   0.03   35.9    48    1.4   139     3.0   737.1    0.00 
  26    9:10   0.10   37.6    51    0.4   172     2.4   737.1    0.00 
  26    9:20   0.33   39.4    58    1.1   208     3.6   737.2    0.00 
  26    9:30   0.38   43.7    47    1.5   275     2.4   737.3    0.00 
  26    9:40   0.40   47.1    35    2.5   281     3.6   737.3    0.00 
  26    9:50   0.43   50.1    28    1.9   254     4.2   737.4    0.00 
  26   10:00   0.46   50.7    35    1.1   218     3.6   737.5    0.00 
  26   10:10   0.48   49.2    30    2.7   218     4.2   737.5    0.00 
  26   10:20   0.50   50.6    28    2.2   186     3.6   737.7    0.00 
  26   10:30   0.52   51.6    29    2.7   198     4.2   737.7    0.00 
  26   10:40   0.54   50.8    26    3.1   210     5.4   737.7    0.00 
  26   10:50   0.56   51.5    27    3.8   154     6.0   737.6    0.00 
  26   11:00   0.57   53.5    26    3.3   168     5.4   737.6    0.00 
  26   11:10   0.59   54.3    26    3.0   193     4.8   737.5    0.00 
  26   11:20   0.60   54.8    26    3.2   199     5.4   737.4    0.00 
  26   11:30   0.60   54.4    26    4.3   205     7.2   737.3    0.00 
  26   11:40   0.62   54.5    24    4.9   174     7.8   737.2    0.00 
  26   11:50   0.63   55.9    22    5.1   161    10.2   737.1    0.00 
  26   12:00   0.63   55.7    22    5.0   148     8.4   737.0    0.00 
  26   12:10   0.64   55.9    20    5.4   132     9.0   736.8    0.00 
  26   12:20   0.63   55.9    19    6.4   126    12.5   736.7    0.00 
  26   12:30   0.64   56.9    17    5.2   100    10.8   736.5    0.00 
  26   12:40   0.64   56.1    16    6.6    73    10.8   736.4    0.00 
  26   12:50   0.63   57.6    16    5.1    75    11.3   736.3    0.00 
  26   13:00   0.63   56.5    17    6.5   128    10.8   736.2    0.00 
  26   13:10   0.62   56.3    18    5.7   122    10.8   736.1    0.00 
  26   13:20   0.61   57.1    17    4.5   167     9.6   736.0    0.00 
  26   13:30   0.60   56.8    18    5.2   149    10.2   736.0    0.00 
  26   13:40   0.59   56.6    20    6.6   151    10.8   735.9    0.00 
  26   13:50   0.57   56.4    21    6.1   161    10.8   735.9    0.00 
  26   14:00   0.56   55.9    21    6.9   156    11.9   735.9    0.00 
  26   14:10   0.55   56.1    22    6.6   162    11.3   735.9    0.00 
  26   14:20   0.52   55.4    21    6.8   161    11.9   735.9    0.00 
  26   14:30   0.50   54.8    21    7.3   156    10.8   735.9    0.00 
  26   14:40   0.48   55.1    22    6.7   155    11.9   736.1    0.00 
  26   14:50   0.44   55.0    22    6.5   160    12.5   736.1    0.00 
  26   15:00   0.45   54.3    24    7.4   157    11.9   736.2    0.00 
  26   15:10   0.43   53.7    24    8.2   155    12.5   736.3    0.00 
  26   15:20   0.39   53.3    23    7.6   157    11.9   736.3    0.00 
  26   15:30   0.30   52.7    25    7.7   157    11.3   736.3    0.00 
  26   15:40   0.21   50.7    28    7.3   154    11.9   736.5    0.00 
  26   15:50   0.20   49.9    29    6.9   150     9.6   736.5    0.00 
  26   16:00   0.17   49.5    29    7.8   151    11.3   736.6    0.00 
  26   16:10   0.08   47.6    31    6.9   141    10.8   736.7    0.00 
  26   16:20   0.06   46.6    31    7.0   143    10.8   736.7    0.00 
  26   16:30   0.06   46.1    32    6.5   141    10.8   736.8    0.00 
  26   16:40   0.06   45.0    34    5.9   138     9.0   736.9    0.00 
  26   16:50   0.06   44.6    35    3.9   114     8.4   737.0    0.00 
  26   17:00   0.06   44.8    34    2.9   126     5.4   737.1    0.00 
  26   17:10   0.06   45.6    34    3.7   130     6.6   737.2    0.00 
  26   17:20   0.03   45.5    35    3.6   105     4.8   737.2    0.00 
  26   17:30   0.01   43.7    38    3.4    98     4.8   737.3    0.00 
  26   17:40   0.00   42.2    41    3.5    66     4.8   737.4    0.00 
  26   17:50   0.00   41.1    44    3.5    50     4.8   737.4    0.00 
  26   18:00   0.00   39.7    48    4.0    38     5.4   737.4    0.00 
  26   18:10   0.00   38.2    50    4.1    36     4.8   737.4    0.00 
  26   18:20   0.00   37.4    52    3.5    39     4.8   737.5    0.00 
  26   18:30   0.00   36.6    53    4.3    34     5.4   737.5    0.00 
  26   18:40   0.00   36.0    54    4.5    35     5.4   737.5    0.00 
  26   18:50   0.00   35.4    54    4.0    41     4.8   737.5    0.00 
  26   19:00   0.00   35.0    55    4.6    39     5.4   737.5    0.00 
  26   19:10   0.00   34.5    57    4.7    36     5.4   737.6    0.00 
  26   19:20   0.00   34.0    58    3.6    28     4.8   737.6    0.00 
  26   19:30   0.00   33.5    59    3.5    33     4.8   737.6    0.00 
  26   19:40   0.00   33.3    59    3.9    33     5.4   737.5    0.00 
  26   19:50   0.00   33.3    60    4.2    32     5.4   737.4    0.00 
  26   20:00   0.00   33.2    61    2.7    72     4.2   737.6    0.00 
  26   20:10   0.00   33.0    62    3.3    41     4.8   737.6    0.00 
  26   20:20   0.00   32.4    64    3.9    38     4.8   737.5    0.00 
  26   20:30   0.00   32.3    63    2.8    50     4.2   737.4    0.00 
  26   20:40   0.00   32.5    63    3.6    44     4.8   737.4    0.00 
  26   20:50   0.00   32.2    64    3.2    42     4.2   737.4    0.00 
  26   21:00   0.00   31.9    66    3.3    40     4.2   737.4    0.00 
  26   21:10   0.00   31.7    68    3.3    39     4.2   737.3    0.00 
  26   21:20   0.00   31.7    67    2.5    48     4.2   737.3    0.00 
  26   21:30   0.00   31.8    66    3.1    48     4.2   737.3    0.00 
  26   21:40   0.00   31.3    67    2.5    36     4.8   737.4    0.00 
  26   21:50   0.00   30.9    68    3.6    41     4.8   737.3    0.00 
  26   22:00   0.00   30.7    68    2.8    46     4.2   737.3    0.00 
  26   22:10   0.00   30.4    68    2.8    42     3.6   737.3    0.00 
  26   22:20   0.00   30.3    70    2.4    44     3.6   737.2    0.00 

Return to Valle Toledo, Valles Caldera graphs page.


Western Regional Climate Center,wrcc@dri.edu